createdAt,value
2022-11-14T00:01:22.085Z,1.55
2022-11-14T00:04:07.428Z,1.40
2022-11-14T00:06:52.764Z,1.65
2022-11-14T00:09:41.270Z,2.03
2022-11-14T00:12:26.879Z,1.52
2022-11-14T00:15:12.599Z,1.60
2022-11-14T00:17:57.739Z,1.25
2022-11-14T00:20:43.041Z,1.75
2022-11-14T00:23:28.510Z,1.52
2022-11-14T00:26:13.822Z,1.95
2022-11-14T00:28:59.455Z,1.73
2022-11-14T00:31:44.524Z,1.77
2022-11-14T00:34:29.913Z,1.90
2022-11-14T00:37:15.520Z,1.90
2022-11-14T00:40:01.136Z,1.52
2022-11-14T00:42:46.527Z,2.72
2022-11-14T00:45:31.936Z,2.03
2022-11-14T00:48:17.388Z,2.38
2022-11-14T00:51:03.076Z,1.55
2022-11-14T00:53:48.242Z,1.73
2022-11-14T00:56:33.749Z,1.70
2022-11-14T00:59:19.120Z,1.60
2022-11-14T01:02:04.681Z,1.65
2022-11-14T01:04:50.157Z,1.40
2022-11-14T01:07:35.429Z,1.60
2022-11-14T01:10:21.398Z,1.60
2022-11-14T01:13:06.828Z,1.38
2022-11-14T01:15:52.388Z,2.47
2022-11-14T01:18:38.121Z,2.10
2022-11-14T01:21:23.522Z,1.65
2022-11-14T01:24:09.071Z,2.17
2022-11-14T01:26:57.638Z,2.22
2022-11-14T01:29:43.186Z,1.42
2022-11-14T01:32:28.756Z,1.10
2022-11-14T01:35:14.025Z,1.50
2022-11-14T01:37:59.505Z,1.10
2022-11-14T01:40:46.453Z,1.55
2022-11-14T01:43:37.490Z,1.50
2022-11-14T01:46:36.408Z,1.38
2022-11-14T01:49:25.911Z,1.20
2022-11-14T01:52:15.965Z,1.42
2022-11-14T01:55:04.835Z,1.40
2022-11-14T01:57:50.149Z,0.90
2022-11-14T02:00:35.796Z,1.30
2022-11-14T02:03:24.255Z,1.20
2022-11-14T02:06:12.909Z,1.15
2022-11-14T02:09:02.061Z,1.20
2022-11-14T02:11:47.878Z,0.90
2022-11-14T02:14:36.876Z,1.27
2022-11-14T02:17:29.615Z,1.27
2022-11-14T02:20:21.503Z,1.25
2022-11-14T02:23:06.889Z,1.55
2022-11-14T02:25:52.768Z,1.20
2022-11-14T02:28:37.972Z,1.15
2022-11-14T02:31:23.726Z,1.08
2022-11-14T02:34:09.076Z,1.13
2022-11-14T02:36:55.275Z,0.68
2022-11-14T02:39:40.860Z,1.00
2022-11-14T02:42:26.128Z,1.17
2022-11-14T02:45:13.008Z,0.90
2022-11-14T02:47:58.115Z,1.25
2022-11-14T02:50:43.490Z,1.10
2022-11-14T02:53:29.043Z,1.75
2022-11-14T02:56:14.441Z,0.90
2022-11-14T02:59:00.081Z,0.98
2022-11-14T03:01:45.628Z,1.20
2022-11-14T03:04:30.923Z,1.35
2022-11-14T03:07:16.407Z,1.00
2022-11-14T03:10:02.022Z,1.10
2022-11-14T03:12:47.186Z,1.05
2022-11-14T03:15:32.535Z,1.00
2022-11-14T03:18:17.911Z,1.10
2022-11-14T03:21:12.013Z,1.13
2022-11-14T03:23:57.527Z,1.00
2022-11-14T03:26:42.896Z,1.20
2022-11-14T03:29:28.056Z,1.00
2022-11-14T03:32:13.735Z,1.20
2022-11-14T03:34:58.879Z,1.17
2022-11-14T03:37:44.539Z,0.70
2022-11-14T03:40:29.886Z,0.95
2022-11-14T03:43:15.798Z,1.00
2022-11-14T03:46:02.786Z,0.95
2022-11-14T03:48:48.191Z,2.38
2022-11-14T03:51:33.623Z,0.82
2022-11-14T03:54:19.097Z,0.75
2022-11-14T03:57:04.655Z,0.98
2022-11-14T03:59:50.137Z,1.05
2022-11-14T04:02:35.766Z,0.95
2022-11-14T04:05:21.855Z,1.20
2022-11-14T04:08:07.586Z,1.30
2022-11-14T04:10:52.877Z,1.10
2022-11-14T04:13:38.451Z,1.20
2022-11-14T04:16:24.000Z,1.25
2022-11-14T04:19:09.421Z,1.13
2022-11-14T04:21:54.721Z,1.33
2022-11-14T04:24:40.173Z,1.08
2022-11-14T04:27:25.636Z,1.02
2022-11-14T04:30:11.614Z,2.45
2022-11-14T04:32:57.123Z,2.42
2022-11-14T04:35:42.739Z,1.50
2022-11-14T04:38:28.279Z,1.15
2022-11-14T04:41:13.740Z,1.17
2022-11-14T04:43:59.379Z,1.20
2022-11-14T04:46:45.032Z,1.23
2022-11-14T04:49:30.311Z,0.75
2022-11-14T04:52:15.711Z,1.23
2022-11-14T04:55:01.039Z,0.88
2022-11-14T04:57:46.454Z,1.02
2022-11-14T05:00:32.170Z,1.13
2022-11-14T05:03:17.603Z,0.98
2022-11-14T05:06:03.808Z,1.02
2022-11-14T05:08:49.061Z,1.00
2022-11-14T05:11:34.446Z,1.02
2022-11-14T05:14:19.974Z,1.05
2022-11-14T05:17:05.439Z,0.90
2022-11-14T05:19:51.022Z,1.05
2022-11-14T05:22:36.277Z,1.27
2022-11-14T05:25:22.107Z,1.20
2022-11-14T05:28:07.327Z,1.65
2022-11-14T05:30:52.881Z,1.48
2022-11-14T05:33:38.439Z,1.40
2022-11-14T05:36:23.864Z,1.70
2022-11-14T05:39:09.076Z,1.63
2022-11-14T05:41:54.509Z,1.10
2022-11-14T05:44:39.995Z,1.50
2022-11-14T05:47:25.361Z,1.20
2022-11-14T05:50:10.802Z,1.15
2022-11-14T05:52:56.837Z,1.30
2022-11-14T05:55:41.822Z,1.60
2022-11-14T05:58:27.291Z,2.08
2022-11-14T06:01:19.221Z,3.10
2022-11-14T06:04:06.411Z,2.40
2022-11-14T06:06:51.851Z,3.10
2022-11-14T06:09:37.366Z,3.15
2022-11-14T06:12:22.777Z,3.80
2022-11-14T06:15:08.553Z,4.47
2022-11-14T06:17:54.557Z,5.10
2022-11-14T06:20:39.560Z,6.35
2022-11-14T06:23:25.300Z,6.32
2022-11-14T06:26:31.444Z,7.40
2022-11-14T06:29:16.521Z,7.40
2022-11-14T06:32:01.931Z,7.57
2022-11-14T06:34:47.414Z,7.68
2022-11-14T06:37:35.245Z,7.38
2022-11-14T06:40:20.305Z,7.78
2022-11-14T06:43:05.578Z,7.97
2022-11-14T06:45:54.343Z,6.93
2022-11-14T06:48:40.410Z,8.25
2022-11-14T06:51:25.587Z,8.35
2022-11-14T06:54:14.166Z,8.07
2022-11-14T06:57:02.563Z,9.18
2022-11-14T06:59:48.139Z,10.52
2022-11-14T07:02:33.366Z,8.20
2022-11-14T07:05:18.682Z,8.88
2022-11-14T07:08:04.360Z,9.60
2022-11-14T07:10:49.725Z,8.90
2022-11-14T07:13:36.104Z,9.35
2022-11-14T07:16:35.249Z,8.23
2022-11-14T07:19:20.486Z,9.48
2022-11-14T07:22:05.869Z,15.32
2022-11-14T07:24:51.331Z,19.02
2022-11-14T07:27:36.692Z,15.82
2022-11-14T07:30:22.310Z,22.50
2022-11-14T07:33:07.849Z,9.25
2022-11-14T07:35:53.307Z,12.77
2022-11-14T07:38:39.572Z,7.90
2022-11-14T07:41:24.878Z,30.60
2022-11-14T07:44:10.375Z,15.95
2022-11-14T07:46:57.146Z,11.95
2022-11-14T07:49:42.602Z,7.85
2022-11-14T07:52:28.089Z,8.38
2022-11-14T07:55:13.407Z,8.63
2022-11-14T07:58:01.819Z,6.55
2022-11-14T08:00:47.607Z,6.93
2022-11-14T08:03:33.711Z,6.35
2022-11-14T08:06:18.885Z,4.80
2022-11-14T08:09:04.561Z,4.18
2022-11-14T08:11:49.969Z,11.25
2022-11-14T08:14:35.762Z,7.35
2022-11-14T08:17:23.177Z,3.35
2022-11-14T08:20:09.618Z,17.40
2022-11-14T08:23:01.396Z,3.38
2022-11-14T08:28:32.329Z,2.35
2022-11-14T08:31:17.737Z,2.40
2022-11-14T08:34:03.200Z,2.10
2022-11-14T08:36:48.659Z,1.77
2022-11-14T08:39:34.170Z,1.48
2022-11-14T08:42:19.455Z,1.75
2022-11-14T08:45:05.504Z,1.83
2022-11-14T08:47:52.456Z,1.70
2022-11-14T08:50:37.696Z,1.55
2022-11-14T08:53:23.519Z,2.08
2022-11-14T08:56:10.644Z,1.85
2022-11-14T08:58:56.214Z,1.50
2022-11-14T09:01:41.627Z,1.88
2022-11-14T09:04:27.020Z,1.67
2022-11-14T09:07:12.356Z,1.77
2022-11-14T09:09:57.594Z,1.35
2022-11-14T09:12:43.026Z,1.70
2022-11-14T09:15:28.825Z,1.70
2022-11-14T09:18:15.154Z,1.50
2022-11-14T09:21:06.511Z,1.73
2022-11-14T09:23:55.082Z,1.52
2022-11-14T09:26:42.704Z,1.27
2022-11-14T09:29:28.090Z,1.60
2022-11-14T09:32:13.479Z,1.63
2022-11-14T09:34:58.923Z,1.67
2022-11-14T09:37:44.296Z,1.38
2022-11-14T09:40:30.943Z,1.30
2022-11-14T09:43:47.545Z,1.10
2022-11-14T09:46:40.434Z,1.33
2022-11-14T09:49:37.508Z,1.40
2022-11-14T09:52:38.609Z,0.90
2022-11-14T09:55:35.234Z,1.25
2022-11-14T09:58:22.096Z,1.30
2022-11-14T10:01:29.160Z,1.08
2022-11-14T10:04:42.885Z,1.02
2022-11-14T10:07:57.832Z,1.10
2022-11-14T10:10:57.684Z,0.88
2022-11-14T10:14:05.629Z,0.95
2022-11-14T10:17:19.995Z,1.02
2022-11-14T10:20:23.593Z,1.02
2022-11-14T10:23:30.413Z,0.98
2022-11-14T10:26:26.323Z,0.70
2022-11-14T10:29:50.668Z,0.90
2022-11-14T10:32:54.179Z,0.80
2022-11-14T10:36:09.064Z,0.88
2022-11-14T10:39:14.143Z,0.77
2022-11-14T10:42:07.680Z,0.98
2022-11-14T10:45:16.476Z,1.10
2022-11-14T10:48:09.620Z,0.75
2022-11-14T10:51:16.658Z,1.33
2022-11-14T10:54:14.194Z,0.88
2022-11-14T10:56:59.832Z,0.70
2022-11-14T10:59:45.370Z,0.80
2022-11-14T11:02:48.619Z,0.80
2022-11-14T11:05:51.435Z,0.80
2022-11-14T11:09:00.958Z,0.70
2022-11-14T11:11:58.206Z,0.85
2022-11-14T11:14:47.886Z,1.02
2022-11-14T11:17:38.473Z,1.10
2022-11-14T11:20:39.416Z,1.10
2022-11-14T11:23:27.482Z,0.98
2022-11-14T11:26:32.695Z,0.98
2022-11-14T11:29:19.667Z,0.90
2022-11-14T11:32:05.314Z,1.05
2022-11-14T11:34:53.840Z,1.20
2022-11-14T11:37:55.939Z,0.80
2022-11-14T11:40:44.730Z,0.88
2022-11-14T11:43:57.212Z,0.98
2022-11-14T11:47:03.334Z,0.90
2022-11-14T11:49:54.344Z,1.10
2022-11-14T11:53:17.623Z,1.00
2022-11-14T11:56:12.815Z,1.00
2022-11-14T11:59:33.399Z,1.02
2022-11-14T12:02:26.826Z,1.10
2022-11-14T12:05:25.982Z,0.95
2022-11-14T12:08:26.839Z,0.85
2022-11-14T12:11:20.975Z,1.00
2022-11-14T12:14:27.837Z,1.20
2022-11-14T12:17:13.346Z,2.80
2022-11-14T12:20:12.543Z,1.10
2022-11-14T12:23:31.811Z,1.17
2022-11-14T12:26:41.977Z,1.20
2022-11-14T12:29:49.136Z,1.08
2022-11-14T12:32:41.902Z,1.33
2022-11-14T12:35:34.048Z,1.55
2022-11-14T12:38:21.299Z,1.70
2022-11-14T12:41:07.921Z,1.33
2022-11-14T12:43:53.363Z,1.20
2022-11-14T12:47:04.681Z,1.58
2022-11-14T12:49:53.168Z,1.20
2022-11-14T12:52:44.467Z,1.55
2022-11-14T12:55:29.669Z,1.30
2022-11-14T12:58:35.364Z,1.52
2022-11-14T13:01:26.757Z,1.52
2022-11-14T13:04:32.892Z,1.42
2022-11-14T13:07:39.431Z,1.40
2022-11-14T13:10:31.810Z,1.80
2022-11-14T13:13:36.445Z,1.63
2022-11-14T13:16:49.060Z,1.30
2022-11-14T13:19:53.512Z,1.38
2022-11-14T13:22:41.061Z,1.17
2022-11-14T13:25:26.684Z,1.55
2022-11-14T13:28:49.984Z,1.45
2022-11-14T13:31:46.048Z,1.73
2022-11-14T13:34:43.719Z,1.75
2022-11-14T13:37:44.575Z,1.60
2022-11-14T13:40:46.894Z,1.83
2022-11-14T13:44:03.499Z,1.55
2022-11-14T13:46:52.909Z,2.05
2022-11-14T13:49:59.659Z,1.73
2022-11-14T13:52:47.994Z,2.00
2022-11-14T13:56:16.238Z,2.05
2022-11-14T13:59:28.991Z,1.88
2022-11-14T14:02:47.541Z,1.65
2022-11-14T14:05:39.949Z,1.90
2022-11-14T14:08:57.021Z,1.70
2022-11-14T14:12:00.407Z,1.63
2022-11-14T14:15:00.520Z,1.90
2022-11-14T14:18:00.858Z,2.05
2022-11-14T14:20:53.268Z,2.58
2022-11-14T14:24:16.995Z,1.65
2022-11-14T14:27:14.320Z,2.20
2022-11-14T14:30:10.136Z,2.47
2022-11-14T14:33:08.160Z,1.83
2022-11-14T14:35:54.552Z,2.15
2022-11-14T14:38:40.026Z,2.80
2022-11-14T14:41:30.703Z,2.38
2022-11-14T14:44:37.200Z,2.00
2022-11-14T14:47:31.315Z,2.13
2022-11-14T14:50:23.199Z,2.67
2022-11-14T14:53:22.372Z,2.65
2022-11-14T14:56:26.681Z,2.67
2022-11-14T14:59:21.914Z,2.25
2022-11-14T15:02:16.159Z,2.10
2022-11-14T15:05:02.694Z,1.98
2022-11-14T15:07:49.944Z,2.35
2022-11-14T15:10:36.105Z,2.30
2022-11-14T15:13:23.621Z,3.10
2022-11-14T15:16:09.648Z,2.85
2022-11-14T15:18:57.261Z,2.60
2022-11-14T15:21:43.295Z,29.63
2022-11-14T15:24:29.507Z,5.45
2022-11-14T15:27:20.263Z,12.32
2022-11-14T15:30:19.298Z,2.60
2022-11-14T15:33:24.618Z,2.58
2022-11-14T15:36:17.851Z,2.97
2022-11-14T15:39:05.928Z,2.47
2022-11-14T15:42:21.068Z,2.65
2022-11-14T15:45:28.146Z,2.40
2022-11-14T15:48:17.969Z,2.65
2022-11-14T15:51:03.145Z,2.97
2022-11-14T15:53:49.956Z,3.20
2022-11-14T15:56:35.020Z,3.58
2022-11-14T15:59:21.057Z,2.83
2022-11-14T16:02:18.385Z,3.22
2022-11-14T16:05:05.053Z,4.88
2022-11-14T16:07:50.147Z,4.05
2022-11-14T16:10:35.560Z,3.13
2022-11-14T16:13:21.103Z,3.58
2022-11-14T16:16:06.752Z,2.58
2022-11-14T16:18:52.832Z,3.08
2022-11-14T16:21:38.289Z,2.80
2022-11-14T16:24:24.097Z,2.58
2022-11-14T16:27:09.928Z,2.78
2022-11-14T16:29:55.735Z,3.65
2022-11-14T16:32:46.210Z,2.75
2022-11-14T16:35:31.802Z,3.15
2022-11-14T16:38:17.316Z,3.03
2022-11-14T16:41:07.061Z,2.40
2022-11-14T16:43:55.014Z,4.18
2022-11-14T16:46:40.103Z,3.45
2022-11-14T16:49:25.696Z,3.40
2022-11-14T16:52:11.207Z,3.50
2022-11-14T16:54:56.810Z,3.97
2022-11-14T16:57:42.399Z,3.10
2022-11-14T17:00:27.875Z,4.15
2022-11-14T17:03:13.680Z,4.43
2022-11-14T17:05:58.916Z,4.22
2022-11-14T17:08:44.371Z,4.00
2022-11-14T17:11:29.951Z,3.70
2022-11-14T17:14:15.308Z,4.93
2022-11-14T17:17:03.651Z,4.95
2022-11-14T17:19:49.724Z,3.75
2022-11-14T17:22:35.246Z,3.55
2022-11-14T17:25:21.013Z,3.65
2022-11-14T17:28:06.201Z,3.20
2022-11-14T17:30:51.624Z,1.95
2022-11-14T17:33:37.695Z,1.88
2022-11-14T17:36:25.463Z,2.10
2022-11-14T17:39:11.061Z,2.20
2022-11-14T17:41:56.523Z,1.90
2022-11-14T17:44:42.060Z,1.55
2022-11-14T17:47:28.011Z,1.83
2022-11-14T17:50:13.088Z,2.30
2022-11-14T17:52:58.544Z,1.67
2022-11-14T17:55:44.695Z,2.08
2022-11-14T17:58:31.468Z,1.65
2022-11-14T18:01:22.466Z,2.22
2022-11-14T18:04:07.860Z,2.35
2022-11-14T18:06:53.464Z,2.17
2022-11-14T18:09:39.098Z,2.42
2022-11-14T18:12:24.288Z,2.58
2022-11-14T18:15:09.760Z,2.25
2022-11-14T18:17:55.638Z,3.45
2022-11-14T18:20:40.913Z,3.33
2022-11-14T18:23:26.680Z,3.60
2022-11-14T18:26:13.603Z,3.25
2022-11-14T18:29:02.863Z,3.28
2022-11-14T18:31:48.477Z,3.50
2022-11-14T18:34:37.040Z,4.75
2022-11-14T18:37:23.098Z,4.53
2022-11-14T18:40:16.166Z,3.45
2022-11-14T18:43:02.041Z,5.63
2022-11-14T18:45:47.687Z,4.00
2022-11-14T18:48:33.165Z,5.18
2022-11-14T18:51:24.502Z,4.93
2022-11-14T18:54:15.803Z,5.10
2022-11-14T18:57:01.570Z,6.13
2022-11-14T18:59:47.170Z,6.80
2022-11-14T19:02:32.855Z,7.95
2022-11-14T19:05:18.131Z,7.38
2022-11-14T19:08:05.244Z,6.13
2022-11-14T19:10:50.692Z,5.95
2022-11-14T19:13:36.275Z,8.07
2022-11-14T19:16:21.645Z,9.65
2022-11-14T19:19:07.950Z,9.65
2022-11-14T19:21:53.356Z,11.05
2022-11-14T19:24:42.890Z,10.57
2022-11-14T19:27:28.446Z,9.80
2022-11-14T19:30:15.965Z,8.25
2022-11-14T19:33:04.560Z,6.78
2022-11-14T19:35:50.246Z,5.70
2022-11-14T19:38:35.729Z,5.28
2022-11-14T19:41:22.762Z,5.07
2022-11-14T19:44:08.524Z,4.20
2022-11-14T19:46:54.209Z,4.70
2022-11-14T19:49:39.767Z,4.65
2022-11-14T19:52:25.309Z,4.00
2022-11-14T19:55:10.668Z,3.47
2022-11-14T19:57:56.425Z,4.45
2022-11-14T20:00:41.573Z,3.70
2022-11-14T20:03:27.844Z,3.42
2022-11-14T20:06:19.614Z,3.78
2022-11-14T20:09:10.309Z,4.20
2022-11-14T20:11:55.734Z,5.65
2022-11-14T20:14:41.454Z,4.55
2022-11-14T20:17:26.910Z,5.15
2022-11-14T20:20:12.413Z,4.97
2022-11-14T20:22:58.028Z,5.80
2022-11-14T20:25:43.542Z,5.07
2022-11-14T20:28:28.804Z,4.93
2022-11-14T20:31:17.508Z,5.03
2022-11-14T20:34:02.881Z,5.03
2022-11-14T20:39:53.579Z,4.43
2022-11-14T20:42:48.901Z,4.63
2022-11-14T20:45:34.186Z,3.85
2022-11-14T20:48:20.613Z,4.53
2022-11-14T20:51:10.776Z,3.95
2022-11-14T20:53:56.323Z,3.90
2022-11-14T20:56:41.636Z,4.88
2022-11-14T20:59:26.926Z,4.32
2022-11-14T21:02:12.952Z,3.92
2022-11-14T21:04:58.636Z,4.20
2022-11-14T21:07:44.888Z,3.60
2022-11-14T21:10:45.298Z,4.68
2022-11-14T21:13:49.898Z,6.93
2022-11-14T21:16:38.593Z,6.57
2022-11-14T21:19:24.360Z,5.82
2022-11-14T21:22:09.487Z,9.35
2022-11-14T21:24:54.847Z,7.18
2022-11-14T21:27:40.338Z,6.22
2022-11-14T21:30:26.163Z,5.82
2022-11-14T21:33:11.601Z,5.28
2022-11-14T21:36:03.919Z,5.72
2022-11-14T21:39:02.059Z,5.65
2022-11-14T21:41:49.106Z,5.25
2022-11-14T21:44:34.465Z,4.68
2022-11-14T21:47:20.033Z,5.72
2022-11-14T21:50:05.838Z,4.85
2022-11-14T21:52:51.061Z,5.05
2022-11-14T21:55:36.411Z,6.10
2022-11-14T21:58:21.602Z,4.80
2022-11-14T22:01:39.819Z,4.43
2022-11-14T22:04:25.543Z,4.20
2022-11-14T22:07:10.905Z,4.32
2022-11-14T22:09:56.018Z,3.60
2022-11-14T22:12:41.522Z,3.42
2022-11-14T22:15:27.006Z,3.60
2022-11-14T22:18:12.438Z,3.72
2022-11-14T22:20:59.584Z,3.80
2022-11-14T22:23:46.965Z,2.83
2022-11-14T22:26:35.206Z,3.42
2022-11-14T22:29:20.470Z,2.55
2022-11-14T22:32:05.985Z,2.85
2022-11-14T22:34:51.229Z,3.00
2022-11-14T22:37:36.599Z,3.78
2022-11-14T22:40:22.487Z,3.78
2022-11-14T22:43:07.806Z,3.13
2022-11-14T22:45:53.883Z,3.28
2022-11-14T22:48:39.970Z,3.17
2022-11-14T22:51:26.861Z,2.90
2022-11-14T22:54:13.214Z,2.95
2022-11-14T22:56:58.655Z,2.50
2022-11-14T22:59:44.142Z,2.60
2022-11-14T23:02:31.022Z,2.55
2022-11-14T23:05:17.581Z,2.70
2022-11-14T23:08:06.652Z,2.47
2022-11-14T23:10:51.874Z,2.75
2022-11-14T23:13:48.239Z,2.45
2022-11-14T23:16:33.810Z,2.30
2022-11-14T23:19:18.998Z,2.40
2022-11-14T23:22:04.414Z,2.58
2022-11-14T23:24:49.736Z,2.33
2022-11-14T23:27:35.535Z,2.38
2022-11-14T23:30:20.707Z,2.13
2022-11-14T23:33:06.077Z,2.75
2022-11-14T23:35:51.648Z,2.42
2022-11-14T23:38:37.039Z,2.30
2022-11-14T23:41:25.674Z,2.78
2022-11-14T23:44:11.007Z,3.05
2022-11-14T23:46:56.161Z,2.45
2022-11-14T23:49:41.627Z,2.50
2022-11-14T23:52:27.069Z,2.60
2022-11-14T23:55:12.642Z,2.33
2022-11-14T23:57:58.189Z,2.20
